Time;durP1;ratioP1;P1;durP2;ratioP2;P2;SDS_P1;SDS_P2;PMS_P1;PMS_P2;Temp;Humidity;BMP_temperature;BMP_pressure;BME280_temperature;BME280_humidity;BME280_pressure;Samples;Min_cycle;Max_cycle;Signal;HPM_P1;HPM_P2
2024/03/18 00:02:10;;;;;;;9.70;8.77;;;9.70;99.90;;;;;;5056910;28;21124;-72
2024/03/18 00:04:37;;;;;;;13.33;10.13;;;9.70;99.90;;;;;;5078106;28;20621;-72
2024/03/18 00:07:04;;;;;;;14.43;9.77;;;9.70;99.90;;;;;;5042738;28;20651;-72
2024/03/18 00:09:32;;;;;;;10.13;9.17;;;9.80;99.90;;;;;;5101608;28;20602;-72
2024/03/18 00:11:59;;;;;;;12.53;9.70;;;9.80;99.90;;;;;;5091606;28;21041;-72
2024/03/18 00:14:25;;;;;;;13.57;9.57;;;9.80;99.90;;;;;;5063446;28;20618;-72
2024/03/18 00:16:52;;;;;;;12.90;9.17;;;9.80;99.90;;;;;;5129059;28;20619;-72
2024/03/18 00:19:19;;;;;;;9.57;8.77;;;9.80;99.90;;;;;;5046357;28;20636;-73
2024/03/18 00:21:46;;;;;;;10.53;9.53;;;9.80;99.90;;;;;;5108144;28;20625;-73
2024/03/18 00:24:12;;;;;;;10.83;9.73;;;9.70;99.90;;;;;;5081627;28;20629;-73
2024/03/18 00:26:41;;;;;;;14.07;8.80;;;9.70;99.90;;;;;;5033918;28;20621;-73
2024/03/18 00:29:08;;;;;;;11.33;9.93;;;9.60;99.90;;;;;;5052867;27;20626;-73
2024/03/18 00:31:35;;;;;;;11.80;8.93;;;9.60;99.90;;;;;;5132951;27;20732;-74
2024/03/18 00:34:02;;;;;;;10.07;9.10;;;9.50;99.90;;;;;;5062149;27;20721;-73
2024/03/18 00:36:30;;;;;;;11.57;9.40;;;9.50;99.90;;;;;;5099384;27;21185;-73
2024/03/18 00:38:57;;;;;;;10.57;8.03;;;9.40;99.90;;;;;;5096108;27;21173;-73
2024/03/18 00:44:09;;;;;;;9.63;8.77;;;9.30;99.90;;;;;;5102394;27;21218;-73
2024/03/18 00:46:37;;;;;;;12.77;8.57;;;9.30;99.90;;;;;;5108379;27;20626;-73
2024/03/18 00:49:05;;;;;;;9.47;8.23;;;9.30;99.90;;;;;;5063767;27;20632;-73
2024/03/18 00:51:32;;;;;;;8.83;8.00;;;9.30;99.90;;;;;;5041375;28;20629;-73
2024/03/18 00:53:58;;;;;;;11.37;10.17;;;9.40;99.90;;;;;;5064196;27;20624;-73
2024/03/18 00:56:25;;;;;;;11.80;9.63;;;9.60;99.90;;;;;;5085845;27;20627;-73
2024/03/18 00:58:52;;;;;;;10.50;9.50;;;9.60;99.90;;;;;;5047657;28;21046;-73
2024/03/18 01:01:20;;;;;;;10.67;8.90;;;9.60;99.90;;;;;;5122648;27;20660;-73
2024/03/18 01:03:47;;;;;;;9.50;8.60;;;9.50;99.90;;;;;;5076668;27;20660;-73
2024/03/18 01:06:14;;;;;;;10.53;8.90;;;9.50;99.90;;;;;;5083897;27;21054;-73
2024/03/18 01:08:41;;;;;;;9.20;8.30;;;9.40;99.90;;;;;;5115174;27;20622;-73
2024/03/18 01:11:08;;;;;;;8.60;7.80;;;9.50;99.90;;;;;;5048070;28;20731;-73
2024/03/18 01:13:35;;;;;;;11.17;10.07;;;9.50;99.90;;;;;;5129939;27;20626;-73
2024/03/18 01:16:03;;;;;;;9.80;8.80;;;9.50;99.90;;;;;;5069613;27;20635;-73
2024/03/18 01:18:31;;;;;;;10.20;8.93;;;9.60;99.90;;;;;;5089778;27;20629;-73
2024/03/18 01:20:58;;;;;;;15.20;8.70;;;9.60;99.90;;;;;;5109182;27;20633;-73
2024/03/18 01:23:24;;;;;;;13.20;9.90;;;9.60;99.90;;;;;;5050640;27;21243;-73
2024/03/18 01:25:51;;;;;;;10.80;9.57;;;9.60;99.90;;;;;;5042352;27;20625;-73
2024/03/18 01:28:18;;;;;;;11.50;10.40;;;9.60;99.90;;;;;;5043646;28;20665;-73
2024/03/18 01:30:45;;;;;;;10.10;9.10;;;9.60;99.90;;;;;;5096950;27;20623;-73
2024/03/18 01:33:12;;;;;;;9.43;8.40;;;9.60;99.90;;;;;;5102273;27;20628;-74
2024/03/18 01:35:40;;;;;;;11.10;9.60;;;9.60;99.90;;;;;;5057022;27;20981;-73
2024/03/18 01:38:08;;;;;;;10.60;9.50;;;9.50;99.90;;;;;;5123680;27;20653;-73
2024/03/18 01:40:35;;;;;;;10.27;9.47;;;9.40;99.90;;;;;;5080750;27;20735;-74
2024/03/18 01:43:02;;;;;;;9.77;8.77;;;9.50;99.90;;;;;;5040538;28;20650;-73
2024/03/18 01:45:28;;;;;;;10.43;9.03;;;9.40;99.90;;;;;;5083905;27;20624;-72
2024/03/18 01:47:56;;;;;;;10.40;9.30;;;9.40;99.90;;;;;;5113722;27;20635;-73
2024/03/18 01:50:23;;;;;;;11.50;10.20;;;9.30;99.90;;;;;;5038538;28;20632;-73
2024/03/18 01:52:51;;;;;;;10.67;9.67;;;9.30;99.90;;;;;;5039518;28;20629;-73
2024/03/18 01:55:18;;;;;;;9.93;8.90;;;9.40;99.90;;;;;;5042246;28;20629;-73
2024/03/18 01:57:46;;;;;;;10.87;9.30;;;9.40;99.90;;;;;;5090155;27;20626;-73
2024/03/18 02:00:15;;;;;;;11.83;10.13;;;9.40;99.90;;;;;;5090121;27;20635;-73
2024/03/18 02:02:42;;;;;;;11.90;10.60;;;9.40;99.90;;;;;;5125247;27;20654;-72
2024/03/18 02:05:10;;;;;;;10.40;9.40;;;9.40;99.90;;;;;;5046138;28;20613;-73
2024/03/18 02:07:37;;;;;;;10.60;9.50;;;9.40;99.90;;;;;;5118264;27;21015;-73
2024/03/18 02:10:07;;;;;;;11.40;9.57;;;9.40;99.90;;;;;;5079402;27;20612;-73
2024/03/18 02:12:34;;;;;;;10.50;9.50;;;9.40;99.90;;;;;;5081905;27;20659;-73
2024/03/18 02:15:01;;;;;;;10.57;9.47;;;9.40;99.90;;;;;;5116403;27;21207;-73
2024/03/18 02:17:28;;;;;;;10.10;9.10;;;9.30;99.90;;;;;;5046320;28;20671;-73
2024/03/18 02:19:55;;;;;;;9.97;8.50;;;9.30;99.90;;;;;;5126510;27;20621;-72
2024/03/18 02:22:23;;;;;;;12.60;9.73;;;9.40;99.90;;;;;;5070717;27;20710;-73
2024/03/18 02:24:51;;;;;;;9.93;8.93;;;9.40;99.90;;;;;;5043191;27;20617;-73
2024/03/18 02:27:17;;;;;;;10.90;9.60;;;9.40;99.90;;;;;;5031544;28;20729;-73
2024/03/18 02:29:44;;;;;;;10.77;9.63;;;9.40;99.90;;;;;;5049020;28;20605;-73
2024/03/18 02:32:11;;;;;;;11.57;10.33;;;9.40;99.90;;;;;;5130711;27;20653;-73
2024/03/18 02:34:40;;;;;;;11.20;10.10;;;9.40;99.90;;;;;;5062588;27;20621;-73
2024/03/18 02:37:07;;;;;;;11.00;9.90;;;9.40;99.90;;;;;;5093629;27;20622;-73
2024/03/18 02:39:36;;;;;;;11.27;9.80;;;9.40;99.90;;;;;;5067855;27;20685;-73
2024/03/18 02:42:04;;;;;;;11.20;9.57;;;9.40;99.90;;;;;;5057669;27;20629;-73
2024/03/18 02:44:32;;;;;;;10.17;9.17;;;9.40;99.90;;;;;;5130750;27;21240;-73
2024/03/18 02:47:00;;;;;;;9.87;8.87;;;9.40;99.90;;;;;;5051230;27;20934;-73
2024/03/18 02:49:27;;;;;;;14.10;9.13;;;9.30;99.90;;;;;;5097581;27;20967;-72
2024/03/18 02:51:55;;;;;;;10.37;9.37;;;9.40;99.90;;;;;;5074869;27;20629;-73
2024/03/18 02:54:23;;;;;;;10.97;9.17;;;9.40;99.90;;;;;;5031656;28;20628;-73
2024/03/18 02:56:52;;;;;;;10.67;9.67;;;9.40;99.90;;;;;;5046529;27;20993;-73
2024/03/18 02:59:22;;;;;;;10.63;9.53;;;9.40;99.90;;;;;;5090314;27;20651;-73
2024/03/18 03:01:50;;;;;;;9.37;8.43;;;9.40;99.90;;;;;;5111577;27;20632;-73
2024/03/18 03:04:17;;;;;;;10.13;9.07;;;9.40;99.90;;;;;;5081703;27;20647;-73
2024/03/18 03:06:45;;;;;;;11.37;10.30;;;9.40;99.90;;;;;;5075881;27;20621;-72
2024/03/18 03:09:15;;;;;;;10.90;9.87;;;9.40;99.90;;;;;;5119146;27;20726;-73
2024/03/18 03:11:42;;;;;;;13.60;10.37;;;9.30;99.90;;;;;;5046122;28;20629;-73
2024/03/18 03:14:12;;;;;;;13.33;10.20;;;9.40;99.90;;;;;;5124567;27;20776;-73
2024/03/18 03:16:40;;;;;;;11.60;10.50;;;9.40;99.90;;;;;;5069379;27;20618;-73
2024/03/18 03:19:09;;;;;;;12.03;9.73;;;9.50;99.90;;;;;;5087148;27;21306;-74
2024/03/18 03:21:38;;;;;;;16.93;10.53;;;9.60;99.90;;;;;;5106392;27;20628;-73
2024/03/18 03:24:07;;;;;;;11.23;9.97;;;9.50;99.90;;;;;;5044652;28;20679;-73
2024/03/18 03:26:35;;;;;;;15.93;10.60;;;9.50;99.90;;;;;;5045405;28;20618;-73
2024/03/18 03:29:03;;;;;;;11.80;10.47;;;9.40;99.90;;;;;;5117303;27;20621;-73
2024/03/18 03:31:31;;;;;;;12.10;10.87;;;9.50;99.90;;;;;;5078179;27;20632;-74
2024/03/18 03:33:59;;;;;;;11.57;10.20;;;9.50;99.90;;;;;;5079232;28;20613;-73
2024/03/18 03:36:26;;;;;;;11.10;10.00;;;9.50;99.90;;;;;;5115612;28;20649;-73
2024/03/18 03:38:53;;;;;;;10.97;9.67;;;9.50;99.90;;;;;;5037779;28;20669;-73
2024/03/18 03:41:21;;;;;;;12.57;10.53;;;9.50;99.90;;;;;;5045098;28;21172;-73
2024/03/18 03:43:48;;;;;;;11.70;10.13;;;9.50;99.90;;;;;;5105930;28;20751;-73
2024/03/18 03:46:16;;;;;;;11.87;10.67;;;9.50;99.90;;;;;;5088592;27;20630;-73
2024/03/18 03:48:45;;;;;;;11.23;10.03;;;9.50;99.90;;;;;;5066260;28;20626;-73
2024/03/18 03:51:14;;;;;;;14.20;11.23;;;9.50;99.90;;;;;;5050774;28;20630;-73
2024/03/18 03:53:41;;;;;;;13.00;11.70;;;9.50;99.90;;;;;;5054179;28;21269;-73
2024/03/18 03:56:08;;;;;;;17.10;12.73;;;9.50;99.90;;;;;;5042141;28;21044;-73
2024/03/18 03:58:36;;;;;;;12.57;11.30;;;9.60;99.90;;;;;;5094062;27;20736;-73
2024/03/18 04:01:03;;;;;;;13.43;12.13;;;9.50;99.90;;;;;;5103052;27;21014;-73
2024/03/18 04:03:30;;;;;;;12.10;10.73;;;9.50;99.90;;;;;;5076047;27;20664;-73
2024/03/18 04:05:59;;;;;;;10.90;9.90;;;9.40;99.90;;;;;;5128710;27;20673;-73
2024/03/18 04:08:27;;;;;;;12.67;11.20;;;9.40;99.90;;;;;;5056000;27;20624;-73
2024/03/18 04:10:53;;;;;;;13.43;11.90;;;9.30;99.90;;;;;;5106914;27;20619;-73
2024/03/18 04:13:21;;;;;;;14.63;11.33;;;9.30;99.90;;;;;;5095357;27;20666;-73
2024/03/18 04:15:49;;;;;;;12.87;11.67;;;9.30;99.90;;;;;;5067545;27;20619;-73
2024/03/18 04:18:17;;;;;;;13.40;11.13;;;9.30;99.90;;;;;;5133004;27;20701;-73
2024/03/18 04:20:44;;;;;;;11.20;10.20;;;9.20;99.90;;;;;;5009503;28;20616;-73
2024/03/18 04:23:14;;;;;;;10.87;9.63;;;9.20;99.90;;;;;;5040339;28;20652;-73
2024/03/18 04:25:43;;;;;;;12.57;10.77;;;9.30;99.90;;;;;;5043819;28;20624;-73
2024/03/18 04:28:11;;;;;;;13.00;10.90;;;9.20;99.90;;;;;;5076981;27;20760;-74
2024/03/18 04:30:38;;;;;;;12.37;11.10;;;9.10;99.90;;;;;;5123475;27;20607;-73
2024/03/18 04:33:07;;;;;;;11.47;10.37;;;9.30;99.90;;;;;;5048693;28;20678;-73
2024/03/18 04:35:35;;;;;;;11.87;10.80;;;9.30;99.90;;;;;;5126158;27;20675;-73
2024/03/18 04:38:02;;;;;;;11.10;10.07;;;9.30;99.90;;;;;;5074838;27;21018;-73
2024/03/18 04:40:30;;;;;;;14.83;10.97;;;9.40;99.90;;;;;;5036865;28;21211;-73
2024/03/18 04:42:57;;;;;;;14.33;10.67;;;9.40;99.90;;;;;;5066459;27;20620;-73
2024/03/18 04:45:25;;;;;;;12.70;11.10;;;9.30;99.90;;;;;;5133193;27;20652;-73
2024/03/18 04:47:53;;;;;;;14.03;11.93;;;9.30;99.90;;;;;;5008846;28;20727;-73
2024/03/18 04:50:21;;;;;;;12.37;10.43;;;9.30;99.90;;;;;;5031009;28;20645;-73
2024/03/18 04:52:50;;;;;;;11.80;10.10;;;9.40;99.90;;;;;;5031612;28;20623;-73
2024/03/18 04:55:18;;;;;;;12.70;11.40;;;9.30;99.90;;;;;;5034850;28;20627;-73
2024/03/18 04:57:47;;;;;;;11.40;10.20;;;9.30;99.90;;;;;;5055965;27;21045;-73
2024/03/18 05:00:16;;;;;;;11.70;10.50;;;9.30;99.90;;;;;;5132960;27;20616;-73
2024/03/18 05:02:43;;;;;;;12.10;10.90;;;9.30;99.90;;;;;;5056987;27;20629;-73
2024/03/18 05:05:12;;;;;;;11.30;10.10;;;9.20;99.90;;;;;;5105270;27;20655;-73
2024/03/18 05:07:39;;;;;;;11.80;10.60;;;9.30;99.90;;;;;;5093592;27;20816;-73
2024/03/18 05:10:07;;;;;;;11.63;10.33;;;9.30;99.90;;;;;;5065587;27;20632;-73
2024/03/18 05:12:34;;;;;;;10.27;9.27;;;9.30;99.90;;;;;;5132489;27;20620;-73
2024/03/18 05:15:02;;;;;;;11.03;9.90;;;9.40;99.90;;;;;;5048254;28;20625;-72
2024/03/18 05:17:29;;;;;;;12.83;11.07;;;9.40;99.90;;;;;;5112533;27;20631;-74
2024/03/18 05:19:56;;;;;;;10.97;9.90;;;9.50;99.90;;;;;;5086306;27;20630;-73
2024/03/18 05:22:23;;;;;;;10.47;9.40;;;9.50;99.90;;;;;;5073401;27;20614;-73
2024/03/18 05:24:50;;;;;;;10.50;9.50;;;9.50;99.90;;;;;;5088997;27;20665;-73
2024/03/18 05:27:18;;;;;;;11.97;10.37;;;9.50;99.90;;;;;;5047593;28;20727;-73
2024/03/18 05:29:46;;;;;;;11.63;10.30;;;9.50;99.90;;;;;;5066193;27;20621;-73
2024/03/18 05:32:16;;;;;;;13.90;10.83;;;9.50;99.90;;;;;;5069489;27;20723;-73
2024/03/18 05:34:44;;;;;;;11.03;9.90;;;9.40;99.90;;;;;;5039171;28;20715;-73
2024/03/18 05:37:11;;;;;;;14.67;11.00;;;9.40;99.90;;;;;;5038990;28;20731;-73
2024/03/18 05:39:39;;;;;;;10.40;9.13;;;9.40;99.90;;;;;;5042136;28;20632;-73
2024/03/18 05:42:06;;;;;;;10.37;9.33;;;9.40;99.90;;;;;;5036998;28;20712;-73
2024/03/18 05:44:33;;;;;;;14.77;9.93;;;9.40;99.90;;;;;;5045077;28;20704;-72
2024/03/18 05:47:00;;;;;;;13.20;9.70;;;9.40;99.90;;;;;;5071191;27;20623;-72
2024/03/18 05:49:29;;;;;;;14.13;11.33;;;9.60;99.90;;;;;;5131382;27;20633;-73
2024/03/18 05:51:56;;;;;;;14.70;10.27;;;9.50;99.90;;;;;;5131178;27;20619;-73
2024/03/18 05:54:23;;;;;;;16.90;11.53;;;9.50;99.90;;;;;;5044880;28;20632;-73
2024/03/18 05:56:50;;;;;;;11.87;10.13;;;9.50;99.90;;;;;;5098894;27;20621;-73
2024/03/18 05:59:17;;;;;;;11.70;10.30;;;9.50;99.90;;;;;;5098513;27;20631;-72
2024/03/18 06:01:44;;;;;;;13.80;9.67;;;9.50;99.90;;;;;;5059433;27;20619;-72
2024/03/18 06:04:12;;;;;;;12.90;9.47;;;9.50;99.90;;;;;;5131714;27;20663;-73
2024/03/18 06:06:40;;;;;;;10.17;9.10;;;9.50;99.90;;;;;;5052294;27;20624;-73
2024/03/18 06:09:07;;;;;;;10.97;9.80;;;9.40;99.90;;;;;;5106576;27;20627;-73
2024/03/18 06:11:34;;;;;;;11.17;9.70;;;9.40;99.90;;;;;;5091258;27;20629;-73
2024/03/18 06:14:02;;;;;;;11.50;10.40;;;9.30;99.90;;;;;;5067206;27;20621;-73
2024/03/18 06:16:28;;;;;;;11.10;9.93;;;9.40;99.90;;;;;;5130245;27;20649;-73
2024/03/18 06:18:55;;;;;;;10.53;9.43;;;9.40;99.90;;;;;;5047048;28;20626;-73
2024/03/18 06:21:28;;;;;;;12.20;11.10;;;9.40;99.90;;;;;;5113047;27;20620;-73
2024/03/18 06:23:59;;;;;;;11.07;10.03;;;9.40;99.90;;;;;;5079719;27;20694;-73
2024/03/18 06:26:25;;;;;;;11.60;10.43;;;9.40;99.90;;;;;;5034547;28;20627;-73
2024/03/18 06:28:52;;;;;;;12.47;11.23;;;9.40;99.90;;;;;;5058755;27;20984;-73
2024/03/18 06:31:19;;;;;;;12.10;10.90;;;9.40;99.90;;;;;;5131189;27;20620;-73
2024/03/18 06:33:48;;;;;;;11.03;9.93;;;9.40;99.90;;;;;;5053165;27;20645;-73
2024/03/18 06:36:14;;;;;;;11.80;9.60;;;9.40;99.90;;;;;;5105644;27;20625;-73
2024/03/18 06:38:42;;;;;;;11.80;10.60;;;9.40;99.90;;;;;;5084732;27;20633;-73
2024/03/18 06:41:10;;;;;;;11.03;10.03;;;9.40;99.90;;;;;;5031142;28;20724;-73
2024/03/18 06:43:37;;;;;;;11.27;10.10;;;9.40;99.90;;;;;;5047491;28;20751;-73
2024/03/18 06:46:09;;;;;;;11.93;10.70;;;9.40;99.90;;;;;;5130361;27;20628;-72
2024/03/18 06:48:36;;;;;;;12.93;11.53;;;9.40;99.90;;;;;;5061673;27;20625;-72
2024/03/18 06:51:03;;;;;;;12.60;10.40;;;9.40;99.90;;;;;;5043472;28;20626;-73
2024/03/18 06:53:29;;;;;;;13.00;11.30;;;9.40;99.90;;;;;;5040283;28;20654;-73
2024/03/18 06:55:57;;;;;;;12.53;11.33;;;9.50;99.90;;;;;;5055691;27;20609;-73
2024/03/18 06:58:26;;;;;;;12.07;10.80;;;9.50;99.90;;;;;;5130241;27;20618;-73
2024/03/18 07:00:54;;;;;;;12.47;10.97;;;9.50;99.90;;;;;;5053582;27;20652;-72
2024/03/18 07:03:21;;;;;;;14.03;11.00;;;9.50;99.90;;;;;;5103071;27;20625;-72
2024/03/18 07:05:48;;;;;;;11.97;10.77;;;9.50;99.90;;;;;;5091945;27;20691;-72
2024/03/18 07:08:15;;;;;;;15.80;11.27;;;9.60;99.90;;;;;;5063899;27;20625;-72
2024/03/18 07:10:42;;;;;;;14.00;12.60;;;9.60;99.90;;;;;;5130546;27;20652;-72
2024/03/18 07:13:09;;;;;;;12.20;10.60;;;9.60;99.90;;;;;;5046957;28;20661;-72
2024/03/18 07:15:37;;;;;;;13.23;11.87;;;9.60;99.90;;;;;;5109638;27;20607;-72
2024/03/18 07:18:04;;;;;;;11.57;10.37;;;9.60;99.90;;;;;;5084652;27;21038;-72
2024/03/18 07:20:31;;;;;;;12.90;11.57;;;9.60;99.90;;;;;;5071537;27;20629;-72
2024/03/18 07:22:58;;;;;;;12.07;10.70;;;9.50;99.90;;;;;;5124547;27;20621;-72
2024/03/18 07:25:25;;;;;;;12.17;10.93;;;9.50;99.90;;;;;;5033108;28;20661;-72
2024/03/18 07:27:51;;;;;;;11.40;10.07;;;9.60;99.90;;;;;;5042319;28;20619;-72
2024/03/18 07:30:18;;;;;;;15.50;11.27;;;9.60;99.90;;;;;;5096530;27;20765;-72
2024/03/18 07:32:47;;;;;;;11.67;10.27;;;9.60;99.90;;;;;;5098653;27;20633;-72
2024/03/18 07:35:14;;;;;;;11.20;9.97;;;9.60;99.90;;;;;;5058168;28;21177;-72
2024/03/18 07:37:42;;;;;;;11.43;10.27;;;9.60;99.90;;;;;;5128778;28;21156;-72
2024/03/18 07:40:11;;;;;;;11.10;9.83;;;9.60;99.90;;;;;;5034017;28;20627;-72
2024/03/18 07:42:40;;;;;;;14.00;9.87;;;9.60;99.90;;;;;;5040298;28;21166;-72
2024/03/18 07:45:07;;;;;;;11.90;10.70;;;9.60;99.90;;;;;;5086557;28;20649;-72
2024/03/18 07:47:35;;;;;;;10.83;9.90;;;9.60;99.90;;;;;;5107481;27;21265;-72
2024/03/18 07:50:04;;;;;;;12.10;10.50;;;9.60;99.90;;;;;;5039938;28;21027;-72
2024/03/18 07:52:31;;;;;;;13.20;9.07;;;9.60;99.90;;;;;;5040601;28;20995;-72
2024/03/18 07:55:00;;;;;;;10.30;9.30;;;9.60;99.90;;;;;;5042105;28;20648;-72
2024/03/18 07:57:27;;;;;;;11.20;9.37;;;9.70;99.90;;;;;;5095564;28;21070;-72
2024/03/18 07:59:54;;;;;;;9.77;8.80;;;9.70;99.90;;;;;;5099311;28;20624;-72
2024/03/18 08:02:20;;;;;;;11.07;9.87;;;9.70;99.90;;;;;;5056459;28;20622;-72
2024/03/18 08:04:49;;;;;;;12.13;10.17;;;9.70;99.90;;;;;;5129397;28;21187;-72
2024/03/18 08:07:18;;;;;;;10.03;9.03;;;9.70;99.90;;;;;;5051712;28;20687;-72
2024/03/18 08:09:45;;;;;;;10.23;9.23;;;9.70;99.90;;;;;;5104130;28;20836;-72
2024/03/18 08:12:12;;;;;;;9.33;8.33;;;9.80;99.90;;;;;;5091208;28;21301;-72
2024/03/18 08:14:42;;;;;;;12.47;8.87;;;9.80;99.90;;;;;;5065005;28;20627;-72
2024/03/18 08:17:09;;;;;;;9.83;8.77;;;9.80;99.90;;;;;;5127305;28;20624;-72
2024/03/18 08:19:36;;;;;;;11.30;9.93;;;9.90;99.90;;;;;;5045403;28;20621;-72
2024/03/18 08:22:03;;;;;;;10.97;8.30;;;9.90;99.90;;;;;;5111745;28;20717;-72
2024/03/18 08:24:31;;;;;;;11.57;10.37;;;9.90;99.90;;;;;;5076449;28;20657;-72
2024/03/18 08:26:58;;;;;;;10.87;9.43;;;10.00;99.90;;;;;;5031500;28;20618;-72
2024/03/18 08:29:27;;;;;;;10.30;8.83;;;10.00;99.90;;;;;;5053197;28;20635;-72
2024/03/18 08:31:53;;;;;;;10.20;8.30;;;9.90;99.90;;;;;;5129027;28;20641;-72
2024/03/18 08:34:20;;;;;;;14.83;8.93;;;10.00;99.90;;;;;;5054757;28;20631;-72
2024/03/18 08:36:47;;;;;;;9.37;7.97;;;9.90;99.90;;;;;;5098539;28;20858;-72
2024/03/18 08:39:14;;;;;;;8.70;7.80;;;9.80;99.90;;;;;;5082824;28;20632;-72
2024/03/18 08:41:42;;;;;;;9.60;8.70;;;9.80;99.90;;;;;;5060262;28;20658;-72
2024/03/18 08:44:09;;;;;;;9.60;8.63;;;9.80;99.90;;;;;;5129596;28;21034;-72
2024/03/18 08:46:36;;;;;;;10.50;8.87;;;9.90;99.90;;;;;;5049261;28;20692;-72
2024/03/18 08:49:03;;;;;;;8.83;7.93;;;9.90;99.90;;;;;;5110016;27;20724;-72
2024/03/18 08:51:29;;;;;;;11.03;8.10;;;10.00;99.90;;;;;;5089343;27;20624;-72
2024/03/18 08:53:56;;;;;;;9.57;8.57;;;9.90;99.90;;;;;;5050811;27;20620;-72
2024/03/18 08:56:23;;;;;;;8.63;7.73;;;9.90;99.90;;;;;;5050225;27;20721;-73
2024/03/18 08:58:51;;;;;;;9.70;8.40;;;10.00;99.90;;;;;;5131843;27;21076;-72
2024/03/18 09:01:18;;;;;;;13.10;9.20;;;9.90;99.90;;;;;;5064607;27;20644;-72
2024/03/18 09:03:46;;;;;;;10.10;8.17;;;9.90;99.90;;;;;;5096013;27;20617;-72
2024/03/18 09:06:13;;;;;;;8.20;7.50;;;9.90;99.90;;;;;;5103748;27;20662;-72
2024/03/18 09:08:41;;;;;;;10.80;6.70;;;10.00;99.90;;;;;;5057180;27;20621;-72
2024/03/18 09:11:08;;;;;;;8.43;6.60;;;10.00;99.90;;;;;;5132293;27;20630;-72
2024/03/18 09:13:35;;;;;;;10.40;7.10;;;10.00;99.90;;;;;;5056645;27;20724;-72
2024/03/18 09:16:05;;;;;;;8.37;7.57;;;10.00;99.90;;;;;;5103635;27;20978;-73
2024/03/18 09:18:32;;;;;;;10.73;6.77;;;10.10;99.90;;;;;;5094432;27;20637;-72
2024/03/18 09:20:59;;;;;;;9.30;7.60;;;10.00;99.90;;;;;;5065984;27;20632;-72
2024/03/18 09:23:26;;;;;;;7.97;7.17;;;10.10;99.90;;;;;;5132267;27;21042;-72
2024/03/18 09:25:53;;;;;;;8.13;7.33;;;10.10;99.90;;;;;;5030755;28;20711;-72
2024/03/18 09:28:20;;;;;;;8.07;7.00;;;10.10;99.90;;;;;;5042698;28;20628;-72
2024/03/18 09:30:46;;;;;;;10.73;7.73;;;10.10;99.90;;;;;;5092091;27;20636;-72
2024/03/18 09:33:14;;;;;;;10.07;8.23;;;10.20;99.90;;;;;;5108229;27;20635;-72
2024/03/18 09:35:41;;;;;;;8.70;7.80;;;10.20;99.90;;;;;;5052231;27;20624;-72
2024/03/18 09:38:09;;;;;;;8.90;8.00;;;10.20;99.90;;;;;;5123745;27;21059;-72
2024/03/18 09:40:36;;;;;;;11.47;8.60;;;10.30;99.90;;;;;;5044051;28;21197;-72
2024/03/18 09:43:03;;;;;;;9.70;6.77;;;10.30;99.90;;;;;;5098962;27;20624;-72
2024/03/18 09:45:30;;;;;;;7.07;6.37;;;10.20;99.90;;;;;;5100173;27;20652;-72
2024/03/18 09:47:59;;;;;;;10.00;7.03;;;10.10;99.90;;;;;;5058938;27;20654;-72
2024/03/18 09:50:27;;;;;;;13.03;7.07;;;10.20;99.90;;;;;;5082816;27;20631;-72
2024/03/18 09:52:55;;;;;;;7.47;6.77;;;10.30;99.90;;;;;;5082616;27;20630;-72
2024/03/18 09:55:23;;;;;;;7.10;6.00;;;10.20;99.90;;;;;;5041761;28;20626;-72
2024/03/18 09:57:50;;;;;;;9.27;6.13;;;10.20;99.90;;;;;;5087677;27;21181;-72
2024/03/18 10:00:19;;;;;;;9.90;6.80;;;10.30;99.90;;;;;;5110903;27;20628;-72
2024/03/18 10:02:46;;;;;;;8.80;6.10;;;10.40;99.90;;;;;;5049228;27;20623;-72
2024/03/18 10:05:13;;;;;;;6.20;5.60;;;10.50;99.90;;;;;;5131711;27;20657;-72
2024/03/18 10:07:44;;;;;;;9.13;6.10;;;10.50;99.90;;;;;;5061888;27;20626;-72
2024/03/18 10:10:15;;;;;;;6.63;6.00;;;10.60;99.90;;;;;;5098249;27;20620;-72
2024/03/18 10:12:43;;;;;;;5.20;4.80;;;10.60;99.90;;;;;;5098099;27;20629;-72
2024/03/18 10:15:13;;;;;;;5.87;5.37;;;10.50;99.90;;;;;;5060709;27;20614;-72
2024/03/18 10:17:41;;;;;;;6.53;5.93;;;10.50;99.90;;;;;;5130515;27;20610;-72
2024/03/18 10:20:13;;;;;;;10.53;6.50;;;10.50;99.90;;;;;;5048957;27;20725;-72
2024/03/18 10:22:43;;;;;;;7.70;6.63;;;10.40;99.90;;;;;;5086710;27;21215;-72
2024/03/18 10:25:15;;;;;;;10.83;7.07;;;10.50;99.90;;;;;;5038417;28;20657;-72
2024/03/18 10:27:42;;;;;;;8.47;7.57;;;10.60;99.90;;;;;;5076477;27;20619;-72
2024/03/18 10:30:12;;;;;;;6.47;5.70;;;10.60;99.90;;;;;;5120599;27;20633;-72
2024/03/18 10:32:40;;;;;;;8.00;5.70;;;10.60;99.90;;;;;;5046648;28;20641;-72
2024/03/18 10:35:16;;;;;;;9.73;5.80;;;10.70;99.90;;;;;;5125177;27;20630;-72
2024/03/18 10:37:49;;;;;;;6.70;5.73;;;10.70;99.90;;;;;;5085734;27;20631;-72
2024/03/18 10:40:30;;;;;;;7.97;6.60;;;10.80;99.90;;;;;;5037906;28;20660;-72
2024/03/18 10:43:01;;;;;;;7.67;5.50;;;10.80;99.90;;;;;;5082150;27;20654;-72
2024/03/18 10:45:31;;;;;;;8.83;5.50;;;10.80;99.90;;;;;;5112202;27;20667;-72
2024/03/18 10:47:59;;;;;;;6.70;5.67;;;10.90;99.90;;;;;;5047019;28;20625;-72
2024/03/18 10:50:26;;;;;;;9.93;6.20;;;10.90;99.90;;;;;;5081954;27;20624;-72
2024/03/18 10:52:55;;;;;;;7.30;5.40;;;10.90;99.90;;;;;;5067311;27;20627;-72
2024/03/18 10:55:24;;;;;;;7.13;6.40;;;10.90;99.90;;;;;;5037587;28;20607;-72
2024/03/18 10:57:53;;;;;;;6.37;5.77;;;10.90;99.90;;;;;;5075799;27;20717;-72
2024/03/18 11:00:21;;;;;;;6.83;6.23;;;11.00;99.90;;;;;;5121486;27;21194;-72
2024/03/18 11:02:59;;;;;;;6.63;6.03;;;11.00;99.90;;;;;;5083779;27;20724;-72
2024/03/18 11:05:27;;;;;;;6.53;5.93;;;11.10;99.90;;;;;;5046104;28;20657;-72
2024/03/18 11:07:59;;;;;;;6.80;5.93;;;11.00;99.90;;;;;;5110215;27;20627;-72
2024/03/18 11:10:28;;;;;;;6.40;5.80;;;11.10;99.90;;;;;;5082960;27;20627;-72
2024/03/18 11:12:55;;;;;;;8.27;5.13;;;11.00;99.90;;;;;;5075427;27;20623;-72
2024/03/18 11:15:26;;;;;;;6.73;5.50;;;11.00;99.90;;;;;;5120913;27;20628;-72
2024/03/18 11:17:53;;;;;;;7.17;5.30;;;11.00;99.90;;;;;;5045484;28;20625;-72
2024/03/18 11:20:21;;;;;;;7.57;6.17;;;10.90;99.90;;;;;;5122946;27;20624;-72
2024/03/18 11:22:50;;;;;;;5.50;5.00;;;10.90;99.90;;;;;;5072341;27;20718;-72
2024/03/18 11:25:22;;;;;;;10.10;5.80;;;11.00;99.90;;;;;;5045160;28;20631;-72
2024/03/18 11:27:50;;;;;;;9.30;5.60;;;11.10;99.90;;;;;;5101262;27;20654;-72
2024/03/18 11:30:28;;;;;;;5.70;5.10;;;11.00;99.90;;;;;;5126636;27;20711;-72
2024/03/18 11:32:56;;;;;;;5.10;4.70;;;11.00;99.90;;;;;;5045659;28;20741;-72
2024/03/18 11:35:24;;;;;;;5.60;5.10;;;11.00;99.90;;;;;;5122612;27;20620;-72
2024/03/18 11:37:50;;;;;;;10.47;6.00;;;10.90;99.90;;;;;;5072029;27;20626;-72
2024/03/18 11:40:20;;;;;;;5.73;5.20;;;10.90;99.90;;;;;;5035482;28;20665;-72
2024/03/18 11:42:48;;;;;;;5.47;4.93;;;10.90;99.90;;;;;;5064719;28;20614;-72
2024/03/18 11:45:19;;;;;;;5.03;4.63;;;10.80;99.90;;;;;;5129986;28;20624;-72
2024/03/18 11:47:46;;;;;;;6.73;5.70;;;10.90;99.90;;;;;;5005888;28;20632;-72
2024/03/18 11:50:13;;;;;;;7.73;7.07;;;11.00;99.90;;;;;;5030339;28;20633;-72
2024/03/18 11:52:42;;;;;;;5.17;4.63;;;11.10;99.90;;;;;;5030721;28;20623;-72
2024/03/18 11:55:14;;;;;;;7.33;5.67;;;11.00;99.90;;;;;;5032599;28;20634;-72
2024/03/18 11:57:43;;;;;;;7.20;5.73;;;11.00;99.90;;;;;;5057018;28;20727;-72
2024/03/18 12:00:12;;;;;;;7.77;5.97;;;11.10;99.90;;;;;;5129641;28;20654;-72
2024/03/18 12:02:41;;;;;;;9.93;7.17;;;11.10;99.90;;;;;;5049426;27;20635;-72
2024/03/18 12:05:09;;;;;;;7.60;6.30;;;11.10;99.90;;;;;;5107071;28;21176;-72
2024/03/18 12:07:36;;;;;;;6.90;6.20;;;11.10;99.90;;;;;;5086603;27;20995;-72
2024/03/18 12:10:04;;;;;;;5.87;5.23;;;11.00;99.90;;;;;;5067966;28;20624;-72
2024/03/18 12:12:33;;;;;;;4.70;4.23;;;11.00;99.90;;;;;;5125952;28;20623;-72
2024/03/18 12:15:02;;;;;;;5.43;4.20;;;10.80;99.90;;;;;;5045879;28;20622;-72
2024/03/18 12:17:30;;;;;;;4.53;4.13;;;10.80;99.90;;;;;;5116370;28;20619;-72
2024/03/18 12:20:00;;;;;;;4.97;4.53;;;10.80;99.90;;;;;;5077142;28;21207;-72
2024/03/18 12:22:28;;;;;;;5.77;5.17;;;10.60;99.90;;;;;;5083142;27;20614;-72
2024/03/18 12:30:30;;;;;;;6.80;6.20;;;10.40;99.90;;;;;;5128445;27;20958;-72
2024/03/18 12:32:58;;;;;;;7.03;6.40;;;10.40;99.90;;;;;;5073614;27;20630;-73
2024/03/18 12:35:24;;;;;;;6.17;5.57;;;10.40;99.90;;;;;;5044148;28;21190;-73
2024/03/18 12:37:52;;;;;;;7.90;5.83;;;10.40;99.90;;;;;;5093952;27;20656;-71
2024/03/18 12:40:20;;;;;;;6.07;5.23;;;10.40;99.90;;;;;;5037710;28;20636;-72
2024/03/18 12:42:47;;;;;;;7.07;5.23;;;10.40;99.90;;;;;;5055097;27;20625;-72
2024/03/18 12:45:14;;;;;;;6.23;5.63;;;10.50;99.90;;;;;;5133094;27;20982;-72
2024/03/18 12:47:43;;;;;;;6.63;5.90;;;10.50;99.90;;;;;;5059880;27;20650;-72
2024/03/18 12:50:16;;;;;;;4.63;4.23;;;10.50;99.90;;;;;;5065319;27;20729;-72
2024/03/18 12:52:43;;;;;;;4.57;4.17;;;10.40;99.90;;;;;;5040849;27;20657;-72
2024/03/18 12:55:11;;;;;;;4.50;4.10;;;10.40;99.90;;;;;;5032550;28;20633;-72